createdAt,value
2019-02-19T00:00:37.292Z,71.09
2019-02-19T00:03:09.055Z,70.89
2019-02-19T00:05:40.450Z,70.80
2019-02-19T00:08:12.082Z,70.80
2019-02-19T00:10:43.686Z,71.48
2019-02-19T00:13:14.738Z,72.36
2019-02-19T00:15:46.102Z,71.55
2019-02-19T00:18:17.496Z,71.55
2019-02-19T00:20:49.279Z,71.21
2019-02-19T00:23:20.593Z,71.25
2019-02-19T00:25:51.992Z,71.25
2019-02-19T00:28:23.528Z,70.97
2019-02-19T00:30:55.466Z,72.15
2019-02-19T00:33:26.989Z,72.15
2019-02-19T00:35:58.157Z,72.01
2019-02-19T00:38:29.680Z,72.01
2019-02-19T00:41:00.941Z,71.89
2019-02-19T00:43:35.648Z,73.10
2019-02-19T00:46:07.347Z,73.10
2019-02-19T00:48:39.356Z,73.94
2019-02-19T00:51:10.568Z,73.94
2019-02-19T00:53:41.853Z,73.52
2019-02-19T00:56:13.336Z,73.48
2019-02-19T00:58:45.054Z,74.02
2019-02-19T01:01:16.313Z,74.57
2019-02-19T01:03:47.662Z,74.17
2019-02-19T01:06:18.829Z,74.17
2019-02-19T01:08:50.470Z,75.77
2019-02-19T01:11:21.755Z,75.77
2019-02-19T01:13:54.084Z,74.29
2019-02-19T01:16:25.463Z,74.29
2019-02-19T01:18:56.776Z,75.17
2019-02-19T01:21:27.932Z,75.13
2019-02-19T01:23:59.431Z,75.58
2019-02-19T01:26:30.888Z,74.86
2019-02-19T01:29:02.198Z,76.18
2019-02-19T01:31:33.539Z,76.18
2019-02-19T01:34:04.784Z,75.05
2019-02-19T01:36:36.131Z,76.33
2019-02-19T01:39:07.766Z,76.15
2019-02-19T01:41:39.160Z,76.15
2019-02-19T01:44:10.525Z,75.85
2019-02-19T01:46:41.854Z,77.07
2019-02-19T01:49:13.178Z,77.07
2019-02-19T01:51:44.345Z,75.59
2019-02-19T01:54:16.526Z,75.59
2019-02-19T01:56:47.925Z,68.90
2019-02-19T01:59:19.105Z,68.50
2019-02-19T02:01:50.491Z,68.50
2019-02-19T02:04:21.884Z,68.44
2019-02-19T02:06:53.578Z,68.32
2019-02-19T02:09:25.105Z,68.19
2019-02-19T02:11:56.578Z,68.84
2019-02-19T02:14:28.175Z,68.84
2019-02-19T02:17:00.934Z,68.79
2019-02-19T02:19:32.433Z,69.99
2019-02-19T02:22:03.779Z,69.54
2019-02-19T02:24:36.140Z,68.10
2019-02-19T02:27:07.272Z,67.52
2019-02-19T02:29:38.690Z,67.52
2019-02-19T02:32:09.997Z,67.57
2019-02-19T02:34:41.616Z,67.03
2019-02-19T02:37:13.032Z,66.96
2019-02-19T02:39:44.484Z,66.74
2019-02-19T02:42:16.089Z,66.90
2019-02-19T02:44:47.890Z,66.90
2019-02-19T02:47:19.225Z,66.56
2019-02-19T02:49:51.331Z,65.74
2019-02-19T02:52:22.399Z,65.74
2019-02-19T02:54:54.432Z,67.18
2019-02-19T02:57:25.929Z,67.46
2019-02-19T02:59:58.333Z,67.46
2019-02-19T03:02:30.626Z,65.07
2019-02-19T03:05:02.150Z,66.04
2019-02-19T03:07:43.010Z,66.04
2019-02-19T03:10:14.674Z,65.93
2019-02-19T03:12:45.977Z,65.77
2019-02-19T03:15:19.131Z,65.77
2019-02-19T03:17:50.552Z,65.05
2019-02-19T03:20:22.074Z,64.17
2019-02-19T03:22:53.689Z,64.17
2019-02-19T03:25:25.372Z,63.96
2019-02-19T03:27:56.758Z,62.62
2019-02-19T03:30:28.677Z,64.11
2019-02-19T03:33:00.049Z,64.80
2019-02-19T03:35:31.648Z,63.64
2019-02-19T03:38:03.015Z,59.97
2019-02-19T03:40:36.971Z,60.99
2019-02-19T03:43:09.692Z,60.99
2019-02-19T03:45:42.677Z,60.99
2019-02-19T03:48:14.058Z,59.67
2019-02-19T03:50:45.781Z,59.05
2019-02-19T03:53:17.318Z,59.84
2019-02-19T03:55:49.081Z,58.68
2019-02-19T03:58:20.822Z,58.68
2019-02-19T04:00:52.265Z,59.50
2019-02-19T04:03:23.672Z,59.50
2019-02-19T04:05:55.339Z,60.28
2019-02-19T04:08:27.264Z,60.65
2019-02-19T04:10:58.806Z,61.05
2019-02-19T04:13:30.389Z,61.05
2019-02-19T04:16:01.613Z,60.21
2019-02-19T04:18:34.855Z,60.21
2019-02-19T04:21:06.295Z,60.52
2019-02-19T04:23:38.111Z,59.08
2019-02-19T04:26:09.502Z,59.08
2019-02-19T04:28:40.880Z,58.52
2019-02-19T04:31:12.524Z,58.48
2019-02-19T04:33:44.671Z,57.52
2019-02-19T04:36:16.329Z,57.52
2019-02-19T04:38:48.116Z,57.48
2019-02-19T04:41:19.521Z,57.48
2019-02-19T04:43:51.765Z,54.71
2019-02-19T04:46:31.343Z,55.73
2019-02-19T04:48:56.321Z,55.73
2019-02-19T04:51:27.987Z,57.05
2019-02-19T04:53:59.352Z,57.05
2019-02-19T04:56:30.693Z,57.27
2019-02-19T04:59:02.518Z,56.25
2019-02-19T05:01:34.026Z,56.25
2019-02-19T05:04:08.470Z,56.87
2019-02-19T05:06:40.269Z,55.42
2019-02-19T05:09:11.862Z,56.30
2019-02-19T05:11:43.150Z,54.85
2019-02-19T05:14:14.729Z,56.55
2019-02-19T05:16:46.348Z,56.66
2019-02-19T05:19:17.781Z,56.21
2019-02-19T05:21:49.100Z,56.21
2019-02-19T05:24:20.375Z,55.86
2019-02-19T05:26:51.574Z,54.20
2019-02-19T05:29:23.264Z,55.68
2019-02-19T05:31:55.390Z,56.36
2019-02-19T05:34:27.521Z,56.36
2019-02-19T05:36:59.920Z,54.01
2019-02-19T05:39:31.563Z,54.05
2019-02-19T05:42:02.805Z,54.05
2019-02-19T05:44:34.507Z,55.79
2019-02-19T05:47:06.292Z,55.79
2019-02-19T05:49:38.568Z,53.37
2019-02-19T05:52:09.889Z,53.88
2019-02-19T05:54:41.989Z,53.08
2019-02-19T05:57:13.489Z,51.81
2019-02-19T05:59:45.111Z,51.81
2019-02-19T06:02:16.751Z,50.37
2019-02-19T06:04:48.081Z,51.50
2019-02-19T06:07:19.730Z,50.16
2019-02-19T06:09:51.231Z,48.87
2019-02-19T06:12:22.794Z,49.48
2019-02-19T06:14:54.188Z,49.48
2019-02-19T06:17:25.686Z,53.35
2019-02-19T06:19:57.438Z,51.92
2019-02-19T06:22:28.962Z,52.28
2019-02-19T06:25:00.560Z,51.97
2019-02-19T06:27:32.066Z,51.97
2019-02-19T06:30:03.769Z,51.11
2019-02-19T06:32:35.325Z,50.02
2019-02-19T06:35:07.329Z,47.99
2019-02-19T06:37:38.809Z,45.97
2019-02-19T06:40:17.439Z,45.97
2019-02-19T06:42:49.123Z,46.70
2019-02-19T06:45:20.794Z,51.32
2019-02-19T06:47:51.972Z,46.30
2019-02-19T06:50:23.437Z,46.30
2019-02-19T06:52:55.134Z,45.95
2019-02-19T06:55:26.817Z,45.40
2019-02-19T06:57:58.009Z,46.34
2019-02-19T07:00:29.467Z,46.34
2019-02-19T07:03:06.466Z,45.23
2019-02-19T07:05:39.814Z,46.23
2019-02-19T07:08:10.943Z,45.37
2019-02-19T07:10:42.326Z,43.54
2019-02-19T07:13:13.873Z,44.64
2019-02-19T07:15:45.344Z,44.64
2019-02-19T07:18:16.894Z,45.28
2019-02-19T07:20:49.547Z,45.43
2019-02-19T07:23:20.718Z,45.43
2019-02-19T07:25:52.148Z,44.49
2019-02-19T07:28:23.895Z,45.08
2019-02-19T07:30:55.229Z,44.91
2019-02-19T07:33:26.652Z,44.43
2019-02-19T07:35:57.984Z,43.63
2019-02-19T07:38:29.491Z,44.75
2019-02-19T07:41:00.824Z,44.75
2019-02-19T07:43:32.368Z,43.58
2019-02-19T07:46:03.889Z,43.95
2019-02-19T07:48:35.491Z,45.46
2019-02-19T07:51:07.217Z,45.46
2019-02-19T07:53:38.667Z,44.75
2019-02-19T07:56:10.351Z,44.95
2019-02-19T07:58:41.735Z,45.26
2019-02-19T08:01:13.439Z,45.26
2019-02-19T08:03:45.077Z,43.88
2019-02-19T08:06:16.800Z,44.41
2019-02-19T08:08:48.634Z,44.41
2019-02-19T08:11:19.968Z,44.69
2019-02-19T08:13:51.449Z,44.93
2019-02-19T08:16:23.018Z,45.61
2019-02-19T08:18:54.664Z,44.03
2019-02-19T08:21:27.197Z,44.18
2019-02-19T08:23:58.476Z,44.18
2019-02-19T08:26:31.116Z,44.42
2019-02-19T08:29:13.105Z,44.42
2019-02-19T08:31:35.780Z,43.90
2019-02-19T08:34:07.177Z,43.56
2019-02-19T08:36:39.432Z,43.87
2019-02-19T08:39:10.695Z,43.50
2019-02-19T08:41:43.923Z,44.29
2019-02-19T08:44:15.878Z,44.29
2019-02-19T08:46:47.452Z,43.54
2019-02-19T08:49:19.131Z,43.54
2019-02-19T08:51:56.067Z,44.54
2019-02-19T08:54:24.062Z,44.54
2019-02-19T08:56:57.616Z,43.52
2019-02-19T08:59:29.210Z,43.83
2019-02-19T09:02:00.945Z,43.83
2019-02-19T09:04:32.474Z,42.83
2019-02-19T09:07:04.095Z,42.83
2019-02-19T09:09:35.944Z,43.63
2019-02-19T09:12:08.283Z,43.79
2019-02-19T09:14:40.887Z,43.79
2019-02-19T09:17:12.726Z,44.29
2019-02-19T09:19:44.330Z,44.50
2019-02-19T09:22:16.585Z,44.50
2019-02-19T09:24:48.039Z,45.24
2019-02-19T09:27:21.191Z,46.09
2019-02-19T09:29:53.265Z,46.17
2019-02-19T09:32:25.093Z,45.01
2019-02-19T09:34:56.826Z,45.88
2019-02-19T09:37:28.463Z,45.78
2019-02-19T09:40:01.072Z,45.62
2019-02-19T09:42:32.565Z,46.36
2019-02-19T09:45:05.424Z,46.36
2019-02-19T09:47:37.027Z,47.12
2019-02-19T09:50:13.579Z,47.28
2019-02-19T09:52:45.002Z,47.61
2019-02-19T09:55:16.370Z,46.48
2019-02-19T09:57:48.264Z,46.80
2019-02-19T10:00:20.124Z,46.80
2019-02-19T10:02:51.617Z,47.84
2019-02-19T10:05:23.296Z,48.10
2019-02-19T10:07:55.903Z,48.10
2019-02-19T10:10:27.487Z,47.14
2019-02-19T10:12:58.904Z,47.14
2019-02-19T10:15:30.201Z,47.84
2019-02-19T10:18:09.740Z,47.94
2019-02-19T10:20:34.784Z,47.94
2019-02-19T10:23:06.282Z,46.88
2019-02-19T10:25:37.884Z,47.13
2019-02-19T10:28:09.459Z,47.13
2019-02-19T10:30:40.923Z,47.67
2019-02-19T10:33:12.337Z,47.71
2019-02-19T10:35:43.983Z,48.36
2019-02-19T10:38:15.370Z,48.88
2019-02-19T10:40:46.803Z,48.40
2019-02-19T10:43:18.336Z,48.40
2019-02-19T10:45:49.619Z,47.69
2019-02-19T10:48:20.979Z,47.39
2019-02-19T10:50:52.310Z,47.01
2019-02-19T10:53:23.438Z,46.44
2019-02-19T10:55:54.860Z,46.44
2019-02-19T10:58:26.114Z,47.23
2019-02-19T11:00:57.403Z,47.62
2019-02-19T11:03:29.026Z,47.62
2019-02-19T11:06:00.406Z,48.15
2019-02-19T11:08:31.892Z,48.15
2019-02-19T11:11:03.349Z,47.82
2019-02-19T11:13:34.824Z,47.82
2019-02-19T11:16:06.151Z,47.78
2019-02-19T11:18:37.496Z,47.78
2019-02-19T11:21:08.716Z,48.05
2019-02-19T11:23:40.419Z,48.15
2019-02-19T11:26:11.825Z,48.15
2019-02-19T11:28:43.156Z,48.50
2019-02-19T11:31:14.549Z,48.31
2019-02-19T11:33:46.055Z,48.35
2019-02-19T11:36:17.686Z,48.35
2019-02-19T11:38:49.487Z,48.78
2019-02-19T11:41:20.906Z,49.07
2019-02-19T11:43:52.430Z,49.35
2019-02-19T11:46:25.599Z,49.35
2019-02-19T11:48:57.161Z,48.98
2019-02-19T11:51:28.551Z,48.98
2019-02-19T11:53:59.839Z,48.54
2019-02-19T11:56:31.554Z,48.20
2019-02-19T11:59:02.915Z,49.12
2019-02-19T12:01:34.328Z,49.44
2019-02-19T12:04:05.575Z,49.50
2019-02-19T12:06:36.978Z,50.15
2019-02-19T12:09:08.583Z,50.15
2019-02-19T12:11:40.331Z,50.66
2019-02-19T12:14:11.604Z,52.59
2019-02-19T12:16:43.045Z,52.84
2019-02-19T12:19:14.365Z,53.06
2019-02-19T12:21:45.826Z,53.06
2019-02-19T12:24:17.692Z,53.54
2019-02-19T12:26:49.020Z,54.24
2019-02-19T12:29:20.685Z,54.14
2019-02-19T12:31:52.098Z,55.02
2019-02-19T12:34:23.485Z,55.06
2019-02-19T12:36:55.239Z,55.04
2019-02-19T12:39:26.725Z,54.88
2019-02-19T12:41:58.419Z,54.88
2019-02-19T12:44:29.690Z,55.38
2019-02-19T12:47:02.987Z,54.84
2019-02-19T12:49:34.329Z,54.84
2019-02-19T12:52:05.798Z,54.97
2019-02-19T12:54:37.139Z,55.20
2019-02-19T12:57:08.394Z,54.40
2019-02-19T12:59:39.838Z,54.40
2019-02-19T13:02:11.075Z,55.65
2019-02-19T13:04:42.699Z,53.98
2019-02-19T13:07:14.502Z,54.96
2019-02-19T13:09:45.930Z,55.06
2019-02-19T13:12:17.456Z,56.04
2019-02-19T13:14:48.833Z,55.59
2019-02-19T13:17:20.264Z,55.59
2019-02-19T13:19:51.491Z,56.06
2019-02-19T13:22:23.179Z,56.01
2019-02-19T13:24:54.795Z,56.01
2019-02-19T13:27:26.581Z,56.46
2019-02-19T13:29:57.829Z,56.84
2019-02-19T13:32:29.404Z,58.28
2019-02-19T13:35:01.324Z,58.13
2019-02-19T13:37:33.837Z,57.99
2019-02-19T13:40:05.865Z,57.21
2019-02-19T13:42:37.046Z,57.57
2019-02-19T13:45:09.417Z,57.72
2019-02-19T13:47:40.801Z,57.79
2019-02-19T13:50:15.098Z,57.79
2019-02-19T13:53:08.116Z,58.09
2019-02-19T13:55:42.999Z,56.77
2019-02-19T13:58:14.366Z,57.79
2019-02-19T14:00:47.559Z,57.81
2019-02-19T14:03:18.738Z,59.49
2019-02-19T14:05:49.956Z,57.67
2019-02-19T14:08:21.098Z,59.44
2019-02-19T14:10:52.686Z,59.27
2019-02-19T14:13:23.966Z,59.13
2019-02-19T14:16:18.173Z,59.13
2019-02-19T14:19:01.419Z,60.36
2019-02-19T14:21:51.413Z,59.63
2019-02-19T14:24:33.106Z,59.63
2019-02-19T14:27:29.352Z,61.24
2019-02-19T14:30:25.868Z,60.68
2019-02-19T14:33:14.832Z,59.65
2019-02-19T14:36:17.201Z,62.22
2019-02-19T14:39:14.073Z,62.22
2019-02-19T14:42:22.671Z,61.18
2019-02-19T14:45:28.535Z,62.19
2019-02-19T14:48:17.896Z,62.19
2019-02-19T14:51:14.248Z,61.71
2019-02-19T14:54:10.974Z,61.71
2019-02-19T14:56:50.510Z,61.64
2019-02-19T14:59:50.021Z,62.46
2019-02-19T15:02:40.633Z,63.42
2019-02-19T15:05:43.603Z,63.42
2019-02-19T15:08:32.792Z,64.15
2019-02-19T15:11:22.577Z,64.57
2019-02-19T15:14:01.401Z,64.57
2019-02-19T15:16:52.176Z,65.00
2019-02-19T15:19:38.899Z,65.00
2019-02-19T15:22:34.499Z,65.14
2019-02-19T15:25:40.101Z,65.14
2019-02-19T15:28:32.805Z,64.76
2019-02-19T15:31:21.353Z,65.25
2019-02-19T15:34:14.922Z,65.25
2019-02-19T15:37:10.706Z,65.19
2019-02-19T15:39:59.400Z,65.50
2019-02-19T15:42:55.638Z,65.51
2019-02-19T15:45:49.721Z,66.00
2019-02-19T15:48:49.158Z,67.58
2019-02-19T15:51:39.706Z,66.71
2019-02-19T15:54:29.375Z,66.21
2019-02-19T15:57:15.688Z,66.21
2019-02-19T16:00:20.408Z,66.15
2019-02-19T16:03:14.320Z,66.81
2019-02-19T16:06:00.921Z,67.71
2019-02-19T16:08:42.283Z,68.43
2019-02-19T16:11:29.557Z,68.43
2019-02-19T16:14:18.754Z,68.33
2019-02-19T16:17:08.230Z,68.33
2019-02-19T16:19:58.313Z,68.53
2019-02-19T16:22:42.269Z,68.59
2019-02-19T16:25:38.502Z,68.93
2019-02-19T16:28:38.525Z,68.92
2019-02-19T16:31:23.765Z,69.65
2019-02-19T16:34:17.065Z,69.50
2019-02-19T16:37:03.831Z,69.35
2019-02-19T16:39:52.619Z,69.97
2019-02-19T16:42:55.429Z,69.97
2019-02-19T16:45:43.674Z,70.31
2019-02-19T16:48:40.602Z,70.10
2019-02-19T16:51:43.606Z,70.47
2019-02-19T16:54:43.313Z,70.47
2019-02-19T16:57:21.926Z,70.35
2019-02-19T17:00:07.077Z,70.35
2019-02-19T17:02:58.917Z,71.00
2019-02-19T17:05:49.412Z,71.46
2019-02-19T17:08:38.475Z,71.55
2019-02-19T17:11:32.651Z,72.52
2019-02-19T17:14:22.852Z,72.52
2019-02-19T17:17:25.225Z,71.51
2019-02-19T17:20:26.479Z,71.49
2019-02-19T17:23:04.580Z,72.31
2019-02-19T17:25:44.743Z,72.81
2019-02-19T17:28:47.091Z,73.25
2019-02-19T17:31:28.811Z,73.75
2019-02-19T17:34:17.465Z,73.75
2019-02-19T17:37:14.297Z,74.28
2019-02-19T17:39:58.989Z,74.47
2019-02-19T17:42:37.833Z,73.99
2019-02-19T17:45:24.393Z,74.64
2019-02-19T17:48:04.654Z,75.00
2019-02-19T17:50:56.547Z,75.00
2019-02-19T17:53:55.661Z,74.82
2019-02-19T17:56:44.274Z,74.82
2019-02-19T17:59:50.064Z,76.19
2019-02-19T18:02:30.825Z,76.19
2019-02-19T18:05:24.046Z,76.39
2019-02-19T18:08:12.949Z,76.39
2019-02-19T18:11:12.624Z,75.27
2019-02-19T18:13:48.819Z,75.27
2019-02-19T18:16:37.356Z,76.24
2019-02-19T18:19:09.057Z,75.20
2019-02-19T18:21:41.855Z,75.12
2019-02-19T18:24:13.437Z,75.12
2019-02-19T18:26:44.891Z,75.02
2019-02-19T18:29:16.405Z,75.02
2019-02-19T18:31:47.795Z,76.29
2019-02-19T18:34:19.021Z,75.87
2019-02-19T18:36:50.521Z,76.09
2019-02-19T18:39:21.884Z,76.09
2019-02-19T18:41:53.238Z,75.80
2019-02-19T18:44:24.657Z,75.80
2019-02-19T18:46:56.708Z,76.78
2019-02-19T18:49:28.127Z,76.53
2019-02-19T18:51:59.268Z,76.79
2019-02-19T18:54:30.458Z,76.97
2019-02-19T18:57:01.860Z,76.97
2019-02-19T18:59:34.462Z,76.76
2019-02-19T19:02:06.170Z,76.65
2019-02-19T19:04:37.808Z,75.84
2019-02-19T19:07:09.170Z,76.54
2019-02-19T19:09:40.665Z,75.74
2019-02-19T19:12:11.829Z,75.74
2019-02-19T19:14:43.728Z,76.15
2019-02-19T19:17:15.436Z,76.15
2019-02-19T19:19:46.799Z,76.74
2019-02-19T19:22:18.070Z,75.87
2019-02-19T19:24:49.418Z,77.50
2019-02-19T19:27:20.623Z,77.50
2019-02-19T19:29:52.013Z,77.00
2019-02-19T19:32:23.304Z,77.72
2019-02-19T19:34:54.650Z,77.04
2019-02-19T19:37:26.478Z,77.04
2019-02-19T19:39:57.930Z,77.20
2019-02-19T19:42:29.560Z,77.20
2019-02-19T19:45:00.982Z,78.20
2019-02-19T19:47:32.690Z,78.20
2019-02-19T19:50:04.637Z,76.38
2019-02-19T19:52:36.251Z,76.49
2019-02-19T19:55:08.293Z,76.49
2019-02-19T19:57:39.847Z,76.04
2019-02-19T20:00:11.324Z,76.78
2019-02-19T20:02:42.946Z,76.86
2019-02-19T20:05:14.032Z,76.86
2019-02-19T20:07:45.620Z,77.31
2019-02-19T20:10:16.755Z,77.10
2019-02-19T20:12:48.408Z,76.86
2019-02-19T20:15:19.746Z,75.87
2019-02-19T20:17:51.089Z,76.25
2019-02-19T20:20:22.566Z,76.25
2019-02-19T20:22:53.953Z,76.29
2019-02-19T20:25:25.265Z,76.35
2019-02-19T20:27:56.545Z,76.35
2019-02-19T20:30:28.254Z,76.73
2019-02-19T20:32:59.608Z,76.79
2019-02-19T20:35:30.601Z,76.47
2019-02-19T20:38:01.824Z,76.47
2019-02-19T20:40:33.301Z,77.27
2019-02-19T20:43:04.913Z,77.22
2019-02-19T20:45:36.405Z,77.22
2019-02-19T20:48:08.040Z,76.82
2019-02-19T20:50:39.586Z,76.75
2019-02-19T20:53:11.958Z,76.75
2019-02-19T20:55:43.879Z,76.85
2019-02-19T20:58:15.219Z,76.85
2019-02-19T21:00:46.447Z,77.10
2019-02-19T21:03:17.934Z,77.74
2019-02-19T21:05:49.447Z,77.74
2019-02-19T21:08:20.831Z,77.59
2019-02-19T21:10:52.214Z,77.68
2019-02-19T21:13:24.092Z,77.68
2019-02-19T21:15:56.003Z,77.16
2019-02-19T21:18:27.812Z,77.16
2019-02-19T21:20:59.250Z,76.95
2019-02-19T21:23:30.588Z,77.26
2019-02-19T21:26:02.011Z,77.23
2019-02-19T21:28:33.877Z,77.04
2019-02-19T21:31:05.578Z,76.66
2019-02-19T21:33:36.971Z,76.66
2019-02-19T21:36:08.786Z,77.42
2019-02-19T21:38:41.126Z,77.42
2019-02-19T21:41:12.485Z,76.43
2019-02-19T21:43:43.947Z,76.43
2019-02-19T21:46:15.397Z,77.61
2019-02-19T21:48:48.235Z,76.87
2019-02-19T21:51:20.124Z,76.55
2019-02-19T21:53:51.850Z,77.22
2019-02-19T21:56:23.381Z,77.86
2019-02-19T21:58:54.927Z,77.86
2019-02-19T22:01:26.375Z,77.54
2019-02-19T22:03:57.695Z,77.59
2019-02-19T22:06:29.427Z,78.05
2019-02-19T22:09:00.759Z,77.56
2019-02-19T22:11:33.856Z,78.15
2019-02-19T22:14:05.308Z,77.61
2019-02-19T22:16:36.433Z,77.71
2019-02-19T22:19:09.035Z,78.00
2019-02-19T22:22:03.468Z,78.00
2019-02-19T22:24:40.077Z,77.65
2019-02-19T22:27:11.681Z,78.50
2019-02-19T22:29:43.661Z,78.50
2019-02-19T22:32:16.810Z,78.82
2019-02-19T22:34:48.312Z,77.83
2019-02-19T22:37:19.567Z,78.16
2019-02-19T22:39:51.337Z,77.94
2019-02-19T22:42:22.559Z,79.13
2019-02-19T22:44:55.021Z,78.96
2019-02-19T22:47:26.370Z,78.96
2019-02-19T22:49:58.126Z,77.95
2019-02-19T22:52:29.355Z,77.95
2019-02-19T22:55:13.130Z,78.70
2019-02-19T22:57:44.490Z,78.70
2019-02-19T23:00:36.161Z,78.28
2019-02-19T23:03:09.028Z,78.17
2019-02-19T23:05:40.937Z,78.17
2019-02-19T23:08:12.582Z,79.15
2019-02-19T23:10:44.076Z,79.06
2019-02-19T23:13:15.975Z,79.00
2019-02-19T23:15:47.954Z,79.36
2019-02-19T23:18:19.475Z,79.36
2019-02-19T23:20:51.338Z,78.85
2019-02-19T23:23:23.004Z,79.66
2019-02-19T23:25:54.830Z,79.66
2019-02-19T23:28:26.389Z,80.08
2019-02-19T23:30:57.997Z,79.70
2019-02-19T23:33:29.543Z,79.65
2019-02-19T23:36:15.179Z,79.10
2019-02-19T23:38:47.265Z,79.29
2019-02-19T23:41:19.426Z,79.50
2019-02-19T23:43:50.963Z,79.50
2019-02-19T23:46:22.607Z,80.13
2019-02-19T23:48:54.088Z,79.54
2019-02-19T23:51:25.511Z,79.16
2019-02-19T23:53:56.971Z,79.52
2019-02-19T23:56:28.613Z,79.52
2019-02-19T23:59:00.377Z,79.89
